sensor_id;sensor_type;location;lat;lon;timestamp;P1;durP1;ratioP1;P2;durP2;ratioP2
49101;SDS011;34913;47.520;19.186;2023-03-01T00:01:14;32.53;;;17.65;;
49101;SDS011;34913;47.520;19.186;2023-03-01T00:03:44;31.33;;;16.42;;
49101;SDS011;34913;47.520;19.186;2023-03-01T00:06:10;26.75;;;14.85;;
49101;SDS011;34913;47.520;19.186;2023-03-01T00:08:36;23.95;;;14.05;;
49101;SDS011;34913;47.520;19.186;2023-03-01T00:11:03;24.05;;;13.90;;
49101;SDS011;34913;47.520;19.186;2023-03-01T00:13:34;23.42;;;14.10;;
49101;SDS011;34913;47.520;19.186;2023-03-01T00:16:07;23.75;;;13.90;;
49101;SDS011;34913;47.520;19.186;2023-03-01T00:18:34;23.83;;;14.55;;
49101;SDS011;34913;47.520;19.186;2023-03-01T00:20:59;24.48;;;14.68;;
49101;SDS011;34913;47.520;19.186;2023-03-01T00:23:25;19.83;;;13.35;;
49101;SDS011;34913;47.520;19.186;2023-03-01T00:25:51;27.15;;;14.45;;
49101;SDS011;34913;47.520;19.186;2023-03-01T00:28:17;24.88;;;13.82;;
49101;SDS011;34913;47.520;19.186;2023-03-01T00:30:43;23.58;;;14.10;;
49101;SDS011;34913;47.520;19.186;2023-03-01T00:33:09;24.38;;;14.27;;
49101;SDS011;34913;47.520;19.186;2023-03-01T00:35:34;23.25;;;13.82;;
49101;SDS011;34913;47.520;19.186;2023-03-01T00:38:01;21.75;;;13.15;;
49101;SDS011;34913;47.520;19.186;2023-03-01T00:40:27;22.50;;;13.18;;
49101;SDS011;34913;47.520;19.186;2023-03-01T00:42:53;25.88;;;14.15;;
49101;SDS011;34913;47.520;19.186;2023-03-01T00:45:19;22.00;;;14.05;;
49101;SDS011;34913;47.520;19.186;2023-03-01T00:47:45;22.40;;;13.98;;
49101;SDS011;34913;47.520;19.186;2023-03-01T00:50:11;24.35;;;13.65;;
49101;SDS011;34913;47.520;19.186;2023-03-01T00:52:37;23.08;;;13.25;;
49101;SDS011;34913;47.520;19.186;2023-03-01T00:55:03;22.92;;;14.10;;
49101;SDS011;34913;47.520;19.186;2023-03-01T00:57:29;21.55;;;13.13;;
49101;SDS011;34913;47.520;19.186;2023-03-01T00:59:54;24.38;;;13.30;;
49101;SDS011;34913;47.520;19.186;2023-03-01T01:02:20;24.27;;;14.55;;
49101;SDS011;34913;47.520;19.186;2023-03-01T01:04:46;24.60;;;14.57;;
49101;SDS011;34913;47.520;19.186;2023-03-01T01:07:12;26.13;;;15.05;;
49101;SDS011;34913;47.520;19.186;2023-03-01T01:09:38;24.88;;;14.15;;
49101;SDS011;34913;47.520;19.186;2023-03-01T01:12:04;22.52;;;13.90;;
49101;SDS011;34913;47.520;19.186;2023-03-01T01:14:29;22.73;;;13.95;;
49101;SDS011;34913;47.520;19.186;2023-03-01T01:16:55;23.50;;;13.45;;
49101;SDS011;34913;47.520;19.186;2023-03-01T01:19:21;25.25;;;13.98;;
49101;SDS011;34913;47.520;19.186;2023-03-01T01:21:46;22.27;;;13.18;;
49101;SDS011;34913;47.520;19.186;2023-03-01T01:24:13;24.50;;;13.45;;
49101;SDS011;34913;47.520;19.186;2023-03-01T01:26:39;23.95;;;13.18;;
49101;SDS011;34913;47.520;19.186;2023-03-01T01:29:06;23.70;;;13.95;;
49101;SDS011;34913;47.520;19.186;2023-03-01T01:31:33;22.52;;;13.90;;
49101;SDS011;34913;47.520;19.186;2023-03-01T01:34:00;23.42;;;13.43;;
49101;SDS011;34913;47.520;19.186;2023-03-01T01:36:27;24.48;;;13.60;;
49101;SDS011;34913;47.520;19.186;2023-03-01T01:38:53;24.45;;;14.40;;
49101;SDS011;34913;47.520;19.186;2023-03-01T01:41:19;22.80;;;13.25;;
49101;SDS011;34913;47.520;19.186;2023-03-01T01:43:46;24.52;;;13.13;;
49101;SDS011;34913;47.520;19.186;2023-03-01T01:46:33;24.45;;;14.18;;
49101;SDS011;34913;47.520;19.186;2023-03-01T01:49:02;21.83;;;12.95;;
49101;SDS011;34913;47.520;19.186;2023-03-01T01:51:38;23.13;;;13.05;;
49101;SDS011;34913;47.520;19.186;2023-03-01T01:54:10;20.33;;;12.52;;
49101;SDS011;34913;47.520;19.186;2023-03-01T01:56:39;20.60;;;12.15;;
49101;SDS011;34913;47.520;19.186;2023-03-01T01:59:09;21.13;;;12.07;;
49101;SDS011;34913;47.520;19.186;2023-03-01T02:01:36;17.75;;;11.30;;
49101;SDS011;34913;47.520;19.186;2023-03-01T02:04:01;19.63;;;11.65;;
49101;SDS011;34913;47.520;19.186;2023-03-01T02:06:28;21.75;;;10.80;;
49101;SDS011;34913;47.520;19.186;2023-03-01T02:08:59;22.38;;;12.55;;
49101;SDS011;34913;47.520;19.186;2023-03-01T02:11:30;19.02;;;11.40;;
49101;SDS011;34913;47.520;19.186;2023-03-01T02:13:57;21.75;;;12.07;;
49101;SDS011;34913;47.520;19.186;2023-03-01T02:16:23;20.83;;;12.13;;
49101;SDS011;34913;47.520;19.186;2023-03-01T02:18:50;24.08;;;12.85;;
49101;SDS011;34913;47.520;19.186;2023-03-01T02:24:31;21.23;;;12.30;;
49101;SDS011;34913;47.520;19.186;2023-03-01T02:27:20;21.10;;;12.63;;
49101;SDS011;34913;47.520;19.186;2023-03-01T02:29:52;20.88;;;12.00;;
49101;SDS011;34913;47.520;19.186;2023-03-01T02:32:17;18.45;;;12.02;;
49101;SDS011;34913;47.520;19.186;2023-03-01T02:34:50;20.55;;;11.98;;
49101;SDS011;34913;47.520;19.186;2023-03-01T02:37:17;18.45;;;11.63;;
49101;SDS011;34913;47.520;19.186;2023-03-01T02:39:50;17.63;;;10.95;;
49101;SDS011;34913;47.520;19.186;2023-03-01T02:42:23;20.40;;;11.73;;
49101;SDS011;34913;47.520;19.186;2023-03-01T02:44:54;19.73;;;11.98;;
49101;SDS011;34913;47.520;19.186;2023-03-01T02:47:20;22.80;;;13.90;;
49101;SDS011;34913;47.520;19.186;2023-03-01T02:49:45;22.35;;;12.88;;
49101;SDS011;34913;47.520;19.186;2023-03-01T02:55:02;18.40;;;10.77;;
49101;SDS011;34913;47.520;19.186;2023-03-01T02:57:38;16.45;;;10.52;;
49101;SDS011;34913;47.520;19.186;2023-03-01T03:00:07;15.93;;;10.32;;
49101;SDS011;34913;47.520;19.186;2023-03-01T03:02:36;16.90;;;10.38;;
49101;SDS011;34913;47.520;19.186;2023-03-01T03:05:03;17.45;;;10.10;;
49101;SDS011;34913;47.520;19.186;2023-03-01T03:07:34;16.73;;;10.52;;
49101;SDS011;34913;47.520;19.186;2023-03-01T03:10:03;16.73;;;10.20;;
49101;SDS011;34913;47.520;19.186;2023-03-01T03:12:30;15.20;;;9.43;;
49101;SDS011;34913;47.520;19.186;2023-03-01T03:14:55;17.83;;;9.80;;
49101;SDS011;34913;47.520;19.186;2023-03-01T03:17:21;18.55;;;9.85;;
49101;SDS011;34913;47.520;19.186;2023-03-01T03:19:46;19.98;;;10.80;;
49101;SDS011;34913;47.520;19.186;2023-03-01T03:22:12;18.50;;;10.32;;
49101;SDS011;34913;47.520;19.186;2023-03-01T03:24:38;15.85;;;9.50;;
49101;SDS011;34913;47.520;19.186;2023-03-01T03:27:04;16.15;;;10.20;;
49101;SDS011;34913;47.520;19.186;2023-03-01T03:29:30;16.08;;;9.80;;
49101;SDS011;34913;47.520;19.186;2023-03-01T03:31:56;17.10;;;10.13;;
49101;SDS011;34913;47.520;19.186;2023-03-01T03:34:21;16.17;;;9.73;;
49101;SDS011;34913;47.520;19.186;2023-03-01T03:36:47;18.85;;;9.93;;
49101;SDS011;34913;47.520;19.186;2023-03-01T03:39:12;17.35;;;9.98;;
49101;SDS011;34913;47.520;19.186;2023-03-01T03:41:38;14.52;;;9.75;;
49101;SDS011;34913;47.520;19.186;2023-03-01T03:44:03;17.35;;;10.15;;
49101;SDS011;34913;47.520;19.186;2023-03-01T03:46:29;16.23;;;9.43;;
49101;SDS011;34913;47.520;19.186;2023-03-01T03:48:55;17.67;;;9.90;;
49101;SDS011;34913;47.520;19.186;2023-03-01T03:51:20;15.35;;;9.73;;
49101;SDS011;34913;47.520;19.186;2023-03-01T03:53:47;18.80;;;10.45;;
49101;SDS011;34913;47.520;19.186;2023-03-01T03:56:13;18.00;;;10.63;;
49101;SDS011;34913;47.520;19.186;2023-03-01T03:58:39;20.77;;;10.13;;
49101;SDS011;34913;47.520;19.186;2023-03-01T04:01:04;17.45;;;10.40;;
49101;SDS011;34913;47.520;19.186;2023-03-01T04:03:30;16.80;;;10.82;;
49101;SDS011;34913;47.520;19.186;2023-03-01T04:05:57;16.38;;;10.50;;
49101;SDS011;34913;47.520;19.186;2023-03-01T04:08:24;15.20;;;9.65;;
49101;SDS011;34913;47.520;19.186;2023-03-01T04:10:50;19.52;;;10.43;;
49101;SDS011;34913;47.520;19.186;2023-03-01T04:13:21;15.85;;;10.15;;
49101;SDS011;34913;47.520;19.186;2023-03-01T04:15:51;17.77;;;10.02;;
49101;SDS011;34913;47.520;19.186;2023-03-01T04:18:18;19.15;;;11.02;;
49101;SDS011;34913;47.520;19.186;2023-03-01T04:20:45;17.52;;;10.13;;
49101;SDS011;34913;47.520;19.186;2023-03-01T04:23:19;19.15;;;10.50;;
49101;SDS011;34913;47.520;19.186;2023-03-01T04:28:19;18.88;;;10.73;;
49101;SDS011;34913;47.520;19.186;2023-03-01T04:30:45;18.45;;;10.63;;
49101;SDS011;34913;47.520;19.186;2023-03-01T04:33:10;17.55;;;10.98;;
49101;SDS011;34913;47.520;19.186;2023-03-01T04:35:37;21.38;;;12.43;;
49101;SDS011;34913;47.520;19.186;2023-03-01T04:38:04;43.72;;;19.90;;
49101;SDS011;34913;47.520;19.186;2023-03-01T04:40:30;48.78;;;22.02;;
49101;SDS011;34913;47.520;19.186;2023-03-01T04:42:56;45.03;;;19.38;;
49101;SDS011;34913;47.520;19.186;2023-03-01T04:45:21;40.17;;;18.88;;
49101;SDS011;34913;47.520;19.186;2023-03-01T04:47:47;52.83;;;21.63;;
49101;SDS011;34913;47.520;19.186;2023-03-01T04:50:13;57.60;;;21.70;;
49101;SDS011;34913;47.520;19.186;2023-03-01T04:52:41;68.63;;;26.02;;
49101;SDS011;34913;47.520;19.186;2023-03-01T04:55:07;48.08;;;20.73;;
49101;SDS011;34913;47.520;19.186;2023-03-01T04:57:33;30.13;;;15.13;;
49101;SDS011;34913;47.520;19.186;2023-03-01T04:59:58;26.52;;;12.50;;
49101;SDS011;34913;47.520;19.186;2023-03-01T05:02:24;16.45;;;9.57;;
49101;SDS011;34913;47.520;19.186;2023-03-01T05:04:49;14.55;;;9.18;;
49101;SDS011;34913;47.520;19.186;2023-03-01T05:07:14;14.25;;;9.38;;
49101;SDS011;34913;47.520;19.186;2023-03-01T05:09:47;18.85;;;9.25;;
49101;SDS011;34913;47.520;19.186;2023-03-01T05:12:14;17.42;;;9.50;;
49101;SDS011;34913;47.520;19.186;2023-03-01T05:14:40;16.67;;;9.75;;
49101;SDS011;34913;47.520;19.186;2023-03-01T05:17:06;16.35;;;9.77;;
49101;SDS011;34913;47.520;19.186;2023-03-01T05:19:32;16.83;;;9.70;;
49101;SDS011;34913;47.520;19.186;2023-03-01T05:21:58;16.75;;;9.57;;
49101;SDS011;34913;47.520;19.186;2023-03-01T05:24:27;16.92;;;9.57;;
49101;SDS011;34913;47.520;19.186;2023-03-01T05:26:53;16.20;;;10.02;;
49101;SDS011;34913;47.520;19.186;2023-03-01T05:29:19;14.77;;;9.52;;
49101;SDS011;34913;47.520;19.186;2023-03-01T05:31:55;16.45;;;9.93;;
49101;SDS011;34913;47.520;19.186;2023-03-01T05:34:26;16.42;;;10.05;;
49101;SDS011;34913;47.520;19.186;2023-03-01T05:36:56;14.85;;;8.98;;
49101;SDS011;34913;47.520;19.186;2023-03-01T05:39:23;16.60;;;9.75;;
49101;SDS011;34913;47.520;19.186;2023-03-01T05:41:57;15.27;;;9.73;;
49101;SDS011;34913;47.520;19.186;2023-03-01T05:44:24;18.67;;;10.70;;
49101;SDS011;34913;47.520;19.186;2023-03-01T05:46:50;18.20;;;9.70;;
49101;SDS011;34913;47.520;19.186;2023-03-01T05:49:16;16.88;;;9.70;;
49101;SDS011;34913;47.520;19.186;2023-03-01T05:51:43;16.35;;;10.00;;
49101;SDS011;34913;47.520;19.186;2023-03-01T05:54:13;16.33;;;10.48;;
49101;SDS011;34913;47.520;19.186;2023-03-01T05:56:39;18.17;;;11.23;;
49101;SDS011;34913;47.520;19.186;2023-03-01T05:59:05;17.20;;;10.35;;
49101;SDS011;34913;47.520;19.186;2023-03-01T06:01:31;17.00;;;9.77;;
49101;SDS011;34913;47.520;19.186;2023-03-01T06:03:57;16.05;;;9.95;;
49101;SDS011;34913;47.520;19.186;2023-03-01T06:06:23;19.48;;;10.52;;
49101;SDS011;34913;47.520;19.186;2023-03-01T06:08:49;15.23;;;9.73;;
49101;SDS011;34913;47.520;19.186;2023-03-01T06:11:15;15.35;;;9.82;;
49101;SDS011;34913;47.520;19.186;2023-03-01T06:13:41;18.48;;;10.10;;
49101;SDS011;34913;47.520;19.186;2023-03-01T06:16:08;16.70;;;10.52;;
49101;SDS011;34913;47.520;19.186;2023-03-01T06:18:33;17.48;;;10.85;;
49101;SDS011;34913;47.520;19.186;2023-03-01T06:21:00;16.58;;;10.00;;
49101;SDS011;34913;47.520;19.186;2023-03-01T06:23:25;27.10;;;18.02;;
49101;SDS011;34913;47.520;19.186;2023-03-01T06:25:51;23.02;;;13.77;;
49101;SDS011;34913;47.520;19.186;2023-03-01T06:28:17;17.33;;;10.43;;
49101;SDS011;34913;47.520;19.186;2023-03-01T06:30:43;19.02;;;10.65;;
49101;SDS011;34913;47.520;19.186;2023-03-01T06:33:08;16.15;;;9.52;;
49101;SDS011;34913;47.520;19.186;2023-03-01T06:35:34;15.30;;;9.65;;
49101;SDS011;34913;47.520;19.186;2023-03-01T06:38:02;17.02;;;10.10;;
49101;SDS011;34913;47.520;19.186;2023-03-01T06:40:29;19.52;;;10.75;;
49101;SDS011;34913;47.520;19.186;2023-03-01T06:42:56;20.48;;;10.70;;
49101;SDS011;34913;47.520;19.186;2023-03-01T06:45:21;30.33;;;13.02;;
49101;SDS011;34913;47.520;19.186;2023-03-01T06:47:47;19.65;;;11.80;;
49101;SDS011;34913;47.520;19.186;2023-03-01T06:50:13;21.02;;;12.25;;
49101;SDS011;34913;47.520;19.186;2023-03-01T06:52:40;19.23;;;11.40;;
49101;SDS011;34913;47.520;19.186;2023-03-01T06:55:06;18.70;;;9.90;;
49101;SDS011;34913;47.520;19.186;2023-03-01T06:57:31;18.08;;;9.98;;
49101;SDS011;34913;47.520;19.186;2023-03-01T06:59:57;16.48;;;10.07;;
49101;SDS011;34913;47.520;19.186;2023-03-01T07:02:23;14.82;;;9.68;;
49101;SDS011;34913;47.520;19.186;2023-03-01T07:04:49;16.13;;;9.48;;
49101;SDS011;34913;47.520;19.186;2023-03-01T07:07:15;17.48;;;9.75;;
49101;SDS011;34913;47.520;19.186;2023-03-01T07:09:43;16.30;;;10.05;;
49101;SDS011;34913;47.520;19.186;2023-03-01T07:12:09;17.50;;;10.13;;
49101;SDS011;34913;47.520;19.186;2023-03-01T07:14:34;20.58;;;10.25;;
49101;SDS011;34913;47.520;19.186;2023-03-01T07:17:00;16.08;;;10.20;;
49101;SDS011;34913;47.520;19.186;2023-03-01T07:19:25;17.83;;;10.75;;
49101;SDS011;34913;47.520;19.186;2023-03-01T07:21:51;19.42;;;10.82;;
49101;SDS011;34913;47.520;19.186;2023-03-01T07:24:16;16.67;;;10.30;;
49101;SDS011;34913;47.520;19.186;2023-03-01T07:26:42;16.50;;;9.82;;
49101;SDS011;34913;47.520;19.186;2023-03-01T07:29:07;16.75;;;10.20;;
49101;SDS011;34913;47.520;19.186;2023-03-01T07:31:35;18.77;;;10.65;;
49101;SDS011;34913;47.520;19.186;2023-03-01T07:34:01;18.13;;;9.85;;
49101;SDS011;34913;47.520;19.186;2023-03-01T07:36:27;18.70;;;10.93;;
49101;SDS011;34913;47.520;19.186;2023-03-01T07:38:52;16.55;;;10.38;;
49101;SDS011;34913;47.520;19.186;2023-03-01T07:41:18;20.38;;;10.55;;
49101;SDS011;34913;47.520;19.186;2023-03-01T07:43:43;15.48;;;9.45;;
49101;SDS011;34913;47.520;19.186;2023-03-01T07:46:09;16.55;;;9.30;;
49101;SDS011;34913;47.520;19.186;2023-03-01T07:48:35;17.65;;;11.55;;
49101;SDS011;34913;47.520;19.186;2023-03-01T07:51:01;18.15;;;10.35;;
49101;SDS011;34913;47.520;19.186;2023-03-01T07:53:29;17.25;;;10.45;;
49101;SDS011;34913;47.520;19.186;2023-03-01T07:56:06;18.42;;;9.63;;
49101;SDS011;34913;47.520;19.186;2023-03-01T07:58:34;29.00;;;15.50;;
49101;SDS011;34913;47.520;19.186;2023-03-01T08:01:01;39.42;;;18.30;;
49101;SDS011;34913;47.520;19.186;2023-03-01T08:03:28;22.20;;;11.95;;
49101;SDS011;34913;47.520;19.186;2023-03-01T08:05:54;17.85;;;9.82;;
49101;SDS011;34913;47.520;19.186;2023-03-01T08:08:19;28.10;;;16.13;;
49101;SDS011;34913;47.520;19.186;2023-03-01T08:10:45;16.33;;;9.50;;
49101;SDS011;34913;47.520;19.186;2023-03-01T08:13:10;14.23;;;9.40;;
49101;SDS011;34913;47.520;19.186;2023-03-01T08:15:35;16.63;;;9.70;;
49101;SDS011;34913;47.520;19.186;2023-03-01T08:18:01;15.55;;;9.38;;
49101;SDS011;34913;47.520;19.186;2023-03-01T08:20:26;13.45;;;8.43;;
49101;SDS011;34913;47.520;19.186;2023-03-01T08:22:52;11.95;;;7.88;;
49101;SDS011;34913;47.520;19.186;2023-03-01T08:25:17;14.27;;;8.68;;
49101;SDS011;34913;47.520;19.186;2023-03-01T08:27:42;17.10;;;7.97;;
49101;SDS011;34913;47.520;19.186;2023-03-01T08:30:08;13.05;;;7.63;;
49101;SDS011;34913;47.520;19.186;2023-03-01T08:32:35;12.95;;;7.93;;
49101;SDS011;34913;47.520;19.186;2023-03-01T08:35:02;14.25;;;6.88;;
49101;SDS011;34913;47.520;19.186;2023-03-01T08:37:27;16.05;;;9.85;;
49101;SDS011;34913;47.520;19.186;2023-03-01T08:39:56;17.27;;;9.48;;
49101;SDS011;34913;47.520;19.186;2023-03-01T08:42:21;14.32;;;6.88;;
49101;SDS011;34913;47.520;19.186;2023-03-01T08:44:47;11.48;;;7.22;;
49101;SDS011;34913;47.520;19.186;2023-03-01T08:47:12;12.13;;;7.13;;
49101;SDS011;34913;47.520;19.186;2023-03-01T08:49:37;16.95;;;6.75;;
49101;SDS011;34913;47.520;19.186;2023-03-01T08:52:03;10.68;;;6.60;;
49101;SDS011;34913;47.520;19.186;2023-03-01T08:54:28;12.55;;;7.20;;
49101;SDS011;34913;47.520;19.186;2023-03-01T08:56:54;9.20;;;6.70;;
49101;SDS011;34913;47.520;19.186;2023-03-01T08:59:19;11.32;;;7.30;;
49101;SDS011;34913;47.520;19.186;2023-03-01T09:01:45;12.73;;;7.13;;
49101;SDS011;34913;47.520;19.186;2023-03-01T09:04:11;11.05;;;6.60;;
49101;SDS011;34913;47.520;19.186;2023-03-01T09:06:37;8.98;;;6.40;;
49101;SDS011;34913;47.520;19.186;2023-03-01T09:09:04;12.68;;;7.30;;
49101;SDS011;34913;47.520;19.186;2023-03-01T09:11:30;12.25;;;6.80;;
49101;SDS011;34913;47.520;19.186;2023-03-01T09:13:56;9.57;;;6.75;;
49101;SDS011;34913;47.520;19.186;2023-03-01T09:16:22;10.40;;;6.43;;
49101;SDS011;34913;47.520;19.186;2023-03-01T09:18:54;10.93;;;6.80;;
49101;SDS011;34913;47.520;19.186;2023-03-01T09:21:20;9.85;;;6.65;;
49101;SDS011;34913;47.520;19.186;2023-03-01T09:23:47;13.50;;;6.85;;
49101;SDS011;34913;47.520;19.186;2023-03-01T09:26:14;8.38;;;5.90;;
49101;SDS011;34913;47.520;19.186;2023-03-01T09:28:44;9.45;;;6.47;;
49101;SDS011;34913;47.520;19.186;2023-03-01T09:31:09;10.02;;;6.20;;
49101;SDS011;34913;47.520;19.186;2023-03-01T09:33:37;8.95;;;5.60;;
49101;SDS011;34913;47.520;19.186;2023-03-01T09:36:05;9.82;;;5.80;;
49101;SDS011;34913;47.520;19.186;2023-03-01T09:38:33;10.13;;;5.57;;
49101;SDS011;34913;47.520;19.186;2023-03-01T09:40:59;8.40;;;6.15;;
49101;SDS011;34913;47.520;19.186;2023-03-01T09:46:12;8.50;;;5.80;;
49101;SDS011;34913;47.520;19.186;2023-03-01T09:48:50;9.10;;;5.45;;
49101;SDS011;34913;47.520;19.186;2023-03-01T09:51:29;8.30;;;5.68;;
49101;SDS011;34913;47.520;19.186;2023-03-01T09:53:57;9.02;;;5.95;;
49101;SDS011;34913;47.520;19.186;2023-03-01T10:01:42;8.43;;;5.07;;
49101;SDS011;34913;47.520;19.186;2023-03-01T10:04:26;10.55;;;5.32;;
49101;SDS011;34913;47.520;19.186;2023-03-01T10:09:40;11.23;;;4.63;;
49101;SDS011;34913;47.520;19.186;2023-03-01T10:12:18;10.95;;;5.18;;
49101;SDS011;34913;47.520;19.186;2023-03-01T10:14:59;10.70;;;5.38;;
49101;SDS011;34913;47.520;19.186;2023-03-01T10:20:24;6.53;;;5.05;;
49101;SDS011;34913;47.520;19.186;2023-03-01T10:22:51;10.15;;;6.00;;
49101;SDS011;34913;47.520;19.186;2023-03-01T10:28:28;10.10;;;5.90;;
49101;SDS011;34913;47.520;19.186;2023-03-01T10:31:03;8.23;;;5.95;;
49101;SDS011;34913;47.520;19.186;2023-03-01T10:33:35;8.15;;;5.60;;
49101;SDS011;34913;47.520;19.186;2023-03-01T10:36:04;13.57;;;6.15;;
49101;SDS011;34913;47.520;19.186;2023-03-01T10:38:31;8.75;;;5.57;;
49101;SDS011;34913;47.520;19.186;2023-03-01T10:41:12;7.53;;;5.22;;
49101;SDS011;34913;47.520;19.186;2023-03-01T10:43:46;8.45;;;5.35;;
49101;SDS011;34913;47.520;19.186;2023-03-01T10:46:32;8.38;;;5.50;;
49101;SDS011;34913;47.520;19.186;2023-03-01T10:49:20;7.90;;;5.20;;
49101;SDS011;34913;47.520;19.186;2023-03-01T10:51:49;7.63;;;5.85;;
49101;SDS011;34913;47.520;19.186;2023-03-01T10:54:17;10.43;;;5.97;;
49101;SDS011;34913;47.520;19.186;2023-03-01T10:56:47;11.18;;;5.45;;
49101;SDS011;34913;47.520;19.186;2023-03-01T11:02:14;10.55;;;5.82;;
49101;SDS011;34913;47.520;19.186;2023-03-01T11:12:53;10.00;;;5.53;;
49101;SDS011;34913;47.520;19.186;2023-03-01T11:15:30;11.27;;;6.40;;
49101;SDS011;34913;47.520;19.186;2023-03-01T11:17:56;11.63;;;6.38;;
49101;SDS011;34913;47.520;19.186;2023-03-01T11:20:27;7.35;;;5.82;;
49101;SDS011;34913;47.520;19.186;2023-03-01T11:23:11;8.65;;;6.38;;
49101;SDS011;34913;47.520;19.186;2023-03-01T11:25:43;8.38;;;6.00;;
49101;SDS011;34913;47.520;19.186;2023-03-01T11:28:14;8.05;;;6.13;;
49101;SDS011;34913;47.520;19.186;2023-03-01T11:33:17;11.63;;;6.68;;
49101;SDS011;34913;47.520;19.186;2023-03-01T11:38:34;8.13;;;6.20;;
49101;SDS011;34913;47.520;19.186;2023-03-01T11:41:10;10.13;;;6.43;;
49101;SDS011;34913;47.520;19.186;2023-03-01T11:52:21;6.47;;;4.63;;
49101;SDS011;34913;47.520;19.186;2023-03-01T12:08:16;7.63;;;4.70;;
49101;SDS011;34913;47.520;19.186;2023-03-01T12:10:52;6.10;;;4.95;;
49101;SDS011;34913;47.520;19.186;2023-03-01T12:19:25;10.85;;;5.15;;
49101;SDS011;34913;47.520;19.186;2023-03-01T12:30:14;7.65;;;3.90;;
49101;SDS011;34913;47.520;19.186;2023-03-01T12:46:12;6.65;;;4.10;;
49101;SDS011;34913;47.520;19.186;2023-03-01T12:51:28;7.88;;;4.60;;
49101;SDS011;34913;47.520;19.186;2023-03-01T12:53:57;7.93;;;4.25;;
49101;SDS011;34913;47.520;19.186;2023-03-01T12:56:28;6.65;;;4.28;;
49101;SDS011;34913;47.520;19.186;2023-03-01T12:59:11;6.75;;;4.15;;
49101;SDS011;34913;47.520;19.186;2023-03-01T13:07:25;5.82;;;3.90;;
49101;SDS011;34913;47.520;19.186;2023-03-01T13:12:52;6.20;;;4.15;;
49101;SDS011;34913;47.520;19.186;2023-03-01T13:31:03;7.28;;;3.60;;
49101;SDS011;34913;47.520;19.186;2023-03-01T13:35:58;5.78;;;3.78;;
49101;SDS011;34913;47.520;19.186;2023-03-01T13:46:50;6.65;;;3.47;;
49101;SDS011;34913;47.520;19.186;2023-03-01T13:49:18;7.50;;;3.47;;
49101;SDS011;34913;47.520;19.186;2023-03-01T13:51:50;4.53;;;3.33;;
49101;SDS011;34913;47.520;19.186;2023-03-01T13:54:16;6.32;;;3.67;;
49101;SDS011;34913;47.520;19.186;2023-03-01T13:56:54;7.80;;;4.38;;
49101;SDS011;34913;47.520;19.186;2023-03-01T13:59:21;11.50;;;4.15;;
49101;SDS011;34913;47.520;19.186;2023-03-01T14:01:55;8.05;;;4.03;;
49101;SDS011;34913;47.520;19.186;2023-03-01T14:04:28;10.52;;;3.95;;
49101;SDS011;34913;47.520;19.186;2023-03-01T14:09:42;6.72;;;3.85;;
49101;SDS011;34913;47.520;19.186;2023-03-01T14:20:23;6.63;;;3.33;;
49101;SDS011;34913;47.520;19.186;2023-03-01T14:22:52;5.30;;;3.30;;
49101;SDS011;34913;47.520;19.186;2023-03-01T14:27:45;5.70;;;3.92;;
49101;SDS011;34913;47.520;19.186;2023-03-01T14:32:54;9.32;;;3.38;;
49101;SDS011;34913;47.520;19.186;2023-03-01T14:35:28;6.75;;;4.07;;
49101;SDS011;34913;47.520;19.186;2023-03-01T14:37:59;6.40;;;3.83;;
49101;SDS011;34913;47.520;19.186;2023-03-01T14:40:33;6.05;;;3.20;;
49101;SDS011;34913;47.520;19.186;2023-03-01T14:43:11;6.85;;;3.70;;
49101;SDS011;34913;47.520;19.186;2023-03-01T14:45:46;8.95;;;3.88;;
49101;SDS011;34913;47.520;19.186;2023-03-01T14:48:13;9.27;;;3.60;;
49101;SDS011;34913;47.520;19.186;2023-03-01T14:50:41;12.40;;;3.70;;
49101;SDS011;34913;47.520;19.186;2023-03-01T14:53:14;9.23;;;4.38;;
49101;SDS011;34913;47.520;19.186;2023-03-01T14:55:44;6.60;;;3.53;;
49101;SDS011;34913;47.520;19.186;2023-03-01T14:58:13;7.25;;;3.72;;
49101;SDS011;34913;47.520;19.186;2023-03-01T15:00:45;5.18;;;3.53;;
49101;SDS011;34913;47.520;19.186;2023-03-01T15:03:18;9.02;;;3.17;;
49101;SDS011;34913;47.520;19.186;2023-03-01T15:05:49;6.38;;;3.50;;
49101;SDS011;34913;47.520;19.186;2023-03-01T15:08:18;6.63;;;3.35;;
49101;SDS011;34913;47.520;19.186;2023-03-01T15:11:31;8.45;;;3.70;;
49101;SDS011;34913;47.520;19.186;2023-03-01T15:13:52;6.82;;;3.45;;
49101;SDS011;34913;47.520;19.186;2023-03-01T15:16:21;5.15;;;3.35;;
49101;SDS011;34913;47.520;19.186;2023-03-01T15:18:50;5.97;;;3.40;;
49101;SDS011;34913;47.520;19.186;2023-03-01T15:21:20;6.20;;;4.00;;
49101;SDS011;34913;47.520;19.186;2023-03-01T15:24:06;5.93;;;3.90;;
49101;SDS011;34913;47.520;19.186;2023-03-01T15:26:55;8.80;;;3.95;;
49101;SDS011;34913;47.520;19.186;2023-03-01T15:29:27;6.13;;;3.85;;
49101;SDS011;34913;47.520;19.186;2023-03-01T15:34:32;12.15;;;3.85;;
49101;SDS011;34913;47.520;19.186;2023-03-01T15:36:59;7.60;;;3.85;;
49101;SDS011;34913;47.520;19.186;2023-03-01T15:42:13;7.20;;;3.70;;
49101;SDS011;34913;47.520;19.186;2023-03-01T15:45:20;6.53;;;3.17;;
49101;SDS011;34913;47.520;19.186;2023-03-01T15:47:48;5.32;;;3.30;;
49101;SDS011;34913;47.520;19.186;2023-03-01T15:50:34;7.63;;;3.60;;
49101;SDS011;34913;47.520;19.186;2023-03-01T15:53:05;6.95;;;3.22;;
49101;SDS011;34913;47.520;19.186;2023-03-01T15:55:36;10.15;;;4.35;;
49101;SDS011;34913;47.520;19.186;2023-03-01T15:58:15;8.07;;;4.35;;
49101;SDS011;34913;47.520;19.186;2023-03-01T16:00:43;6.47;;;3.63;;
49101;SDS011;34913;47.520;19.186;2023-03-01T16:03:12;7.18;;;3.70;;
49101;SDS011;34913;47.520;19.186;2023-03-01T16:05:38;7.63;;;3.75;;
49101;SDS011;34913;47.520;19.186;2023-03-01T16:08:04;7.18;;;3.60;;
49101;SDS011;34913;47.520;19.186;2023-03-01T16:10:31;6.07;;;3.53;;
49101;SDS011;34913;47.520;19.186;2023-03-01T16:12:57;7.05;;;3.35;;
49101;SDS011;34913;47.520;19.186;2023-03-01T16:17:49;9.50;;;3.90;;
49101;SDS011;34913;47.520;19.186;2023-03-01T16:20:15;6.90;;;4.13;;
49101;SDS011;34913;47.520;19.186;2023-03-01T16:22:44;5.80;;;3.90;;
49101;SDS011;34913;47.520;19.186;2023-03-01T16:25:11;9.00;;;3.67;;
49101;SDS011;34913;47.520;19.186;2023-03-01T16:27:41;6.57;;;4.00;;
49101;SDS011;34913;47.520;19.186;2023-03-01T16:30:08;8.07;;;4.35;;
49101;SDS011;34913;47.520;19.186;2023-03-01T16:32:38;10.60;;;4.30;;
49101;SDS011;34913;47.520;19.186;2023-03-01T16:35:08;8.50;;;4.35;;
49101;SDS011;34913;47.520;19.186;2023-03-01T16:37:35;12.00;;;3.95;;
49101;SDS011;34913;47.520;19.186;2023-03-01T16:40:01;8.23;;;4.32;;
49101;SDS011;34913;47.520;19.186;2023-03-01T16:42:35;10.60;;;4.13;;
49101;SDS011;34913;47.520;19.186;2023-03-01T16:45:02;7.57;;;4.22;;
49101;SDS011;34913;47.520;19.186;2023-03-01T16:47:28;8.43;;;4.40;;
49101;SDS011;34913;47.520;19.186;2023-03-01T16:49:54;8.80;;;4.63;;
49101;SDS011;34913;47.520;19.186;2023-03-01T16:52:21;10.32;;;5.45;;
49101;SDS011;34913;47.520;19.186;2023-03-01T16:54:47;9.68;;;5.30;;
49101;SDS011;34913;47.520;19.186;2023-03-01T16:57:15;13.13;;;7.22;;
49101;SDS011;34913;47.520;19.186;2023-03-01T16:59:42;14.55;;;8.05;;